Nichioh Maru — JD3267 — position and weather

sailwx.info

Track history (hours):
 
Tides and Currents Weather Stations Pressure Air Temp Water Temp Dewpoint Dewpoint Depression Visibility Wind Speed Wind Dir Waves Ship Positions

Nichioh Maru

Last reported at 2015-Jan-31 16:24 UTC. Time now 2015-Feb-01 16:45 UTC.
Position N 34°55' E 139°21'.

Length 170 m; draft 6.5 m.

Type: Cargo ship. MMSI: 431003232.

Date/timePositionNaut miles runAvg speedWind from/ knotsBaromVisibWave heightAir tempDewpointWater temp
2015-Jan-31 16:24N 34°55' E 139°21'1517.9
2015-Jan-31 15:33N 35°03' E 139°37'1515.2
2015-Jan-31 14:33N 35°16' E 139°46'1212.2
2015-Jan-31 13:33N 35°28' E 139°47'2 2.3
2015-Jan-31 12:32N 35°30' E 139°46'0 0.0
2015-Jan-31 11:32N 35°30' E 139°46'0 0.0
2015-Jan-31 10:29N 35°30' E 139°46'0 0.0
2015-Jan-31 09:23N 35°30' E 139°46'0 0.0
2015-Jan-31 08:20N 35°30' E 139°46'0 0.0
2015-Jan-31 07:30N 35°30' E 139°46'4 4.3
2015-Jan-31 06:33N 35°27' E 139°43'8 7.6
2015-Jan-31 05:33N 35°19' E 139°43'4 3.7
2015-Jan-31 04:33N 35°19' E 139°39'0 0.0
2015-Jan-31 03:33N 35°19' E 139°39'0 0.0
2015-Jan-31 02:34N 35°19' E 139°39'0 0.0
2015-Jan-31 01:33N 35°19' E 139°39'0 0.0
2015-Jan-31 00:34N 35°19' E 139°39'0 0.0
2015-Jan-30 23:33N 35°19' E 139°39'0 0.0
2015-Jan-30 22:34N 35°19' E 139°39'7 7.4
2015-Jan-30 21:34N 35°15' E 139°47'1212.5
2015-Jan-30 20:33N 35°04' E 139°40'1918.0
2015-Jan-30 19:29N 34°51' E 139°22'22216.0
2015-Jan-30 05:33N 34°05' E 134°58'2020.4
2015-Jan-30 04:33N 34°25' E 135°04'1717.0
2015-Jan-30 03:33N 34°39' E 135°16'3 3.0
2015-Jan-30 02:30N 34°41' E 135°13'0 0.0
2015-Jan-30 01:31N 34°41' E 135°13'0 0.0
2015-Jan-30 00:31N 34°41' E 135°13'0 0.0
2015-Jan-29 23:25N 34°41' E 135°13'2 2.5
2015-Jan-29 22:33N 34°39' E 135°16'3 2.7
2015-Jan-29 21:33N 34°37' E 135°15'0 0.0
2015-Jan-29 20:33N 34°37' E 135°15'0 0.0
2015-Jan-29 19:33N 34°37' E 135°15'0 0.0
2015-Jan-29 18:33N 34°37' E 135°15'0 0.0
2015-Jan-29 17:33N 34°37' E 135°15'0 0.0
2015-Jan-29 16:33N 34°37' E 135°15'0 0.0
2015-Jan-29 15:33N 34°37' E 135°15'0 0.0
2015-Jan-29 14:33N 34°37' E 135°15'0 0.0
2015-Jan-29 13:33N 34°37' E 135°15'0 0.0
2015-Jan-29 12:33N 34°37' E 135°15'0 0.0
2015-Jan-29 11:33N 34°37' E 135°15'0 0.0
2015-Jan-29 10:33N 34°37' E 135°15'0 0.0
2015-Jan-29 09:33N 34°37' E 135°15'0 0.0
2015-Jan-29 08:33N 34°37' E 135°15'1111.4
2015-Jan-29 07:33N 34°37' E 135°02'  
2015-Jan-26 14:25N 34°34' E 134°48'1416.7
2015-Jan-26 13:33N 34°33' E 135°05'2020.1
2015-Jan-26 12:33N 34°13' E 134°60'220 4.7
2015-Jan-24 13:28N 34°53' E 139°22'1819.5
2015-Jan-24 12:33N 35°04' E 139°39'1414.1
2015-Jan-24 11:34N 35°17' E 139°45'1313.3
2015-Jan-24 10:34N 35°30' E 139°47'1 1.2
2015-Jan-24 09:33N 35°30' E 139°46'0 0.0
2015-Jan-24 08:33N 35°30' E 139°46'0 0.0
2015-Jan-24 07:33N 35°30' E 139°46'0 0.0
2015-Jan-24 06:30N 35°30' E 139°46'0 0.4
2015-Jan-24 05:33N 35°30' E 139°45'8 7.7
2015-Jan-24 04:33N 35°23' E 139°45'7 6.6
2015-Jan-24 03:33N 35°19' E 139°39'0 0.0
2015-Jan-24 02:28N 35°19' E 139°39'0 0.0
2015-Jan-24 01:31N 35°19' E 139°39'0 0.0
2015-Jan-24 00:31N 35°19' E 139°39'0 0.0
2015-Jan-23 23:31N 35°19' E 139°39'0 0.1
2015-Jan-23 22:33N 35°19' E 139°39'9 9.3
2015-Jan-23 21:33N 35°12' E 139°47'1212.2
2015-Jan-23 20:33N 35°02' E 139°38'2317.0
2015-Jan-23 19:10N 34°47' E 139°16'21816.0
2015-Jan-23 05:31N 33°57' E 134°59'1919.9
2015-Jan-23 04:33N 34°16' E 134°58'2020.2
2015-Jan-23 03:33N 34°32' E 135°14'9 8.8
2015-Jan-23 02:33N 34°41' E 135°13'0 0.0
2015-Jan-23 00:05N 34°41' E 135°13'0 0.0
2015-Jan-22 23:33N 34°41' E 135°13'5 4.4
2015-Jan-22 22:31N 34°37' E 135°16'0 0.0
2015-Jan-22 21:31N 34°37' E 135°16'0 0.0
2015-Jan-22 20:31N 34°37' E 135°16'0 0.0
2015-Jan-22 19:25N 34°37' E 135°16'0 0.0
2015-Jan-22 18:31N 34°37' E 135°16'0 0.0
2015-Jan-22 17:31N 34°37' E 135°16'0 0.0
2015-Jan-22 16:31N 34°37' E 135°16'0 0.0
2015-Jan-22 15:31N 34°37' E 135°16'0 0.0
2015-Jan-22 14:31N 34°37' E 135°16'0 0.1
2015-Jan-22 13:25N 34°37' E 135°16'0 0.0
2015-Jan-22 12:25N 34°37' E 135°16'5 5.5
2015-Jan-22 11:33N 34°36' E 135°10'1817.7
2015-Jan-22 10:32N 34°33' E 134°48'  
Track history (hours):
 
Tides and Currents Weather Stations Pressure Air Temp Water Temp Dewpoint Dewpoint Depression Visibility Wind Speed Wind Dir Waves Ship Positions

Nichioh Maru

Last reported at 2015-Jan-31 16:24 UTC. Time now 2015-Feb-01 16:45 UTC.
Position N 34°55' E 139°21'.

Length 170 m; draft 6.5 m.

Type: Cargo ship. MMSI: 431003232.

Date/timePositionNaut miles runAvg speedWind from/ knotsBaromVisibWave heightAir tempDewpointWater temp
2015-Jan-31 16:24N 34°55' E 139°21'1517.9
2015-Jan-31 15:33N 35°03' E 139°37'1515.2
2015-Jan-31 14:33N 35°16' E 139°46'1212.2
2015-Jan-31 13:33N 35°28' E 139°47'2 2.3
2015-Jan-31 12:32N 35°30' E 139°46'0 0.0
2015-Jan-31 11:32N 35°30' E 139°46'0 0.0
2015-Jan-31 10:29N 35°30' E 139°46'0 0.0
2015-Jan-31 09:23N 35°30' E 139°46'0 0.0
2015-Jan-31 08:20N 35°30' E 139°46'0 0.0
2015-Jan-31 07:30N 35°30' E 139°46'4 4.3
2015-Jan-31 06:33N 35°27' E 139°43'8 7.6
2015-Jan-31 05:33N 35°19' E 139°43'4 3.7
2015-Jan-31 04:33N 35°19' E 139°39'0 0.0
2015-Jan-31 03:33N 35°19' E 139°39'0 0.0
2015-Jan-31 02:34N 35°19' E 139°39'0 0.0
2015-Jan-31 01:33N 35°19' E 139°39'0 0.0
2015-Jan-31 00:34N 35°19' E 139°39'0 0.0
2015-Jan-30 23:33N 35°19' E 139°39'0 0.0
2015-Jan-30 22:34N 35°19' E 139°39'7 7.4
2015-Jan-30 21:34N 35°15' E 139°47'1212.5
2015-Jan-30 20:33N 35°04' E 139°40'1918.0
2015-Jan-30 19:29N 34°51' E 139°22'22216.0
2015-Jan-30 05:33N 34°05' E 134°58'2020.4
2015-Jan-30 04:33N 34°25' E 135°04'1717.0
2015-Jan-30 03:33N 34°39' E 135°16'3 3.0
2015-Jan-30 02:30N 34°41' E 135°13'0 0.0
2015-Jan-30 01:31N 34°41' E 135°13'0 0.0
2015-Jan-30 00:31N 34°41' E 135°13'0 0.0
2015-Jan-29 23:25N 34°41' E 135°13'2 2.5
2015-Jan-29 22:33N 34°39' E 135°16'3 2.7
2015-Jan-29 21:33N 34°37' E 135°15'0 0.0
2015-Jan-29 20:33N 34°37' E 135°15'0 0.0
2015-Jan-29 19:33N 34°37' E 135°15'0 0.0
2015-Jan-29 18:33N 34°37' E 135°15'0 0.0
2015-Jan-29 17:33N 34°37' E 135°15'0 0.0
2015-Jan-29 16:33N 34°37' E 135°15'0 0.0
2015-Jan-29 15:33N 34°37' E 135°15'0 0.0
2015-Jan-29 14:33N 34°37' E 135°15'0 0.0
2015-Jan-29 13:33N 34°37' E 135°15'0 0.0
2015-Jan-29 12:33N 34°37' E 135°15'0 0.0
2015-Jan-29 11:33N 34°37' E 135°15'0 0.0
2015-Jan-29 10:33N 34°37' E 135°15'0 0.0
2015-Jan-29 09:33N 34°37' E 135°15'0 0.0
2015-Jan-29 08:33N 34°37' E 135°15'1111.4
2015-Jan-29 07:33N 34°37' E 135°02'  
2015-Jan-26 14:25N 34°34' E 134°48'1416.7
2015-Jan-26 13:33N 34°33' E 135°05'2020.1
2015-Jan-26 12:33N 34°13' E 134°60'220 4.7
2015-Jan-24 13:28N 34°53' E 139°22'1819.5
2015-Jan-24 12:33N 35°04' E 139°39'1414.1
2015-Jan-24 11:34N 35°17' E 139°45'1313.3
2015-Jan-24 10:34N 35°30' E 139°47'1 1.2
2015-Jan-24 09:33N 35°30' E 139°46'0 0.0
2015-Jan-24 08:33N 35°30' E 139°46'0 0.0
2015-Jan-24 07:33N 35°30' E 139°46'0 0.0
2015-Jan-24 06:30N 35°30' E 139°46'0 0.4
2015-Jan-24 05:33N 35°30' E 139°45'8 7.7
2015-Jan-24 04:33N 35°23' E 139°45'7 6.6
2015-Jan-24 03:33N 35°19' E 139°39'0 0.0
2015-Jan-24 02:28N 35°19' E 139°39'0 0.0
2015-Jan-24 01:31N 35°19' E 139°39'0 0.0
2015-Jan-24 00:31N 35°19' E 139°39'0 0.0
2015-Jan-23 23:31N 35°19' E 139°39'0 0.1
2015-Jan-23 22:33N 35°19' E 139°39'9 9.3
2015-Jan-23 21:33N 35°12' E 139°47'1212.2
2015-Jan-23 20:33N 35°02' E 139°38'2317.0
2015-Jan-23 19:10N 34°47' E 139°16'21816.0
2015-Jan-23 05:31N 33°57' E 134°59'1919.9
2015-Jan-23 04:33N 34°16' E 134°58'2020.2
2015-Jan-23 03:33N 34°32' E 135°14'9 8.8
2015-Jan-23 02:33N 34°41' E 135°13'0 0.0
2015-Jan-23 00:05N 34°41' E 135°13'0 0.0
2015-Jan-22 23:33N 34°41' E 135°13'5 4.4
2015-Jan-22 22:31N 34°37' E 135°16'0 0.0
2015-Jan-22 21:31N 34°37' E 135°16'0 0.0
2015-Jan-22 20:31N 34°37' E 135°16'0 0.0
2015-Jan-22 19:25N 34°37' E 135°16'0 0.0
2015-Jan-22 18:31N 34°37' E 135°16'0 0.0
2015-Jan-22 17:31N 34°37' E 135°16'0 0.0
2015-Jan-22 16:31N 34°37' E 135°16'0 0.0
2015-Jan-22 15:31N 34°37' E 135°16'0 0.0
2015-Jan-22 14:31N 34°37' E 135°16'0 0.1
2015-Jan-22 13:25N 34°37' E 135°16'0 0.0
2015-Jan-22 12:25N 34°37' E 135°16'5 5.5
2015-Jan-22 11:33N 34°36' E 135°10'1817.7
2015-Jan-22 10:32N 34°33' E 134°48'  

Dump ship's entire track history